Time;durP1;ratioP1;P1;durP2;ratioP2;P2;SDS_P1;SDS_P2;PMS_P1;PMS_P2;Temp;Humidity;BMP_temperature;BMP_pressure;BME280_temperature;BME280_humidity;BME280_pressure;Samples;Min_cycle;Max_cycle;Signal;HPM_P1;HPM_P2
2021/03/03 00:02:21;;;;;;;27.75;15.65;;;;;;;8.13;100.00;102506.91;4864396;29;20057;-74
2021/03/03 00:05:08;;;;;;;25.73;15.38;;;;;;;8.30;100.00;102519.47;4863364;29;20439;-74
2021/03/03 00:07:54;;;;;;;25.83;16.00;;;;;;;7.98;100.00;102520.50;4864415;29;20025;-74
2021/03/03 00:10:40;;;;;;;25.05;16.48;;;;;;;8.33;100.00;102508.22;4875917;29;20054;-74
2021/03/03 00:13:26;;;;;;;23.20;15.40;;;;;;;8.00;100.00;102515.31;4864109;29;20033;-74
2021/03/03 00:16:11;;;;;;;24.63;15.95;;;;;;;7.87;100.00;102516.78;4863698;29;20139;-75
2021/03/03 00:18:57;;;;;;;25.80;16.67;;;;;;;7.86;100.00;102521.94;4863933;29;20025;-74
2021/03/03 00:21:43;;;;;;;25.58;15.98;;;;;;;7.76;100.00;102523.47;4863842;29;20135;-74
2021/03/03 00:24:28;;;;;;;24.73;15.95;;;;;;;7.67;100.00;102522.41;4864190;29;20032;-73
2021/03/03 00:27:14;;;;;;;28.42;16.85;;;;;;;7.75;100.00;102515.59;4864721;29;20038;-76
2021/03/03 00:30:00;;;;;;;25.45;16.52;;;;;;;7.88;100.00;102512.44;4863385;29;20097;-74
2021/03/03 00:32:47;;;;;;;30.40;16.52;;;;;;;7.77;100.00;102512.22;4864112;29;20061;-73
2021/03/03 00:35:33;;;;;;;23.88;15.45;;;;;;;7.83;100.00;102504.50;4863364;29;20359;-73
2021/03/03 00:38:18;;;;;;;26.65;15.93;;;;;;;8.02;100.00;102498.84;4863379;29;20026;-74
2021/03/03 00:41:04;;;;;;;26.10;15.80;;;;;;;7.90;100.00;102498.56;4863707;29;20022;-73
2021/03/03 00:43:50;;;;;;;25.02;16.88;;;;;;;7.86;100.00;102499.34;4864162;29;20040;-73
2021/03/03 00:46:36;;;;;;;25.63;15.75;;;;;;;7.82;100.00;102494.91;4863624;29;20443;-74
2021/03/03 00:49:21;;;;;;;27.98;16.20;;;;;;;7.89;100.00;102501.16;4862625;29;20473;-74
2021/03/03 00:52:07;;;;;;;24.52;15.93;;;;;;;7.87;100.00;102501.13;4863478;29;20090;-74
2021/03/03 00:54:53;;;;;;;29.83;16.92;;;;;;;8.03;100.00;102502.31;4864297;29;20064;-74
2021/03/03 00:57:40;;;;;;;24.95;16.10;;;;;;;8.09;100.00;102492.00;4862219;29;20329;-74
2021/03/03 01:00:26;;;;;;;26.15;16.67;;;;;;;7.67;100.00;102498.94;4862860;29;20033;-73
2021/03/03 01:03:12;;;;;;;26.50;16.67;;;;;;;7.84;100.00;102511.47;4863152;29;20530;-74
2021/03/03 01:05:57;;;;;;;26.42;16.40;;;;;;;7.95;100.00;102511.69;4863253;29;20072;-74
2021/03/03 01:08:43;;;;;;;26.13;16.42;;;;;;;7.85;100.00;102505.44;4862449;29;20049;-74
2021/03/03 01:11:29;;;;;;;27.45;16.92;;;;;;;7.61;100.00;102514.44;4862716;29;20048;-75
2021/03/03 01:14:15;;;;;;;29.15;16.70;;;;;;;7.59;100.00;102503.94;4863651;29;20048;-74
2021/03/03 01:17:01;;;;;;;26.80;17.13;;;;;;;7.90;100.00;102508.13;4863203;29;20523;-74
2021/03/03 01:19:47;;;;;;;28.25;16.67;;;;;;;7.96;100.00;102490.88;4862975;29;20054;-75
2021/03/03 01:22:33;;;;;;;34.58;18.73;;;;;;;7.68;100.00;102500.69;4862927;29;20360;-73
2021/03/03 01:25:19;;;;;;;28.27;17.75;;;;;;;7.72;100.00;102499.91;4862898;29;20030;-73
2021/03/03 01:28:05;;;;;;;28.20;17.75;;;;;;;7.51;100.00;102512.47;4863692;29;20041;-74
2021/03/03 01:30:50;;;;;;;27.70;16.92;;;;;;;7.95;100.00;102507.38;4863331;29;20120;-74
2021/03/03 01:33:36;;;;;;;29.52;17.67;;;;;;;7.59;100.00;102513.53;4865610;29;20037;-74
2021/03/03 01:36:22;;;;;;;27.60;17.75;;;;;;;7.65;100.00;102498.91;4862718;29;20471;-74
2021/03/03 01:39:08;;;;;;;25.77;17.52;;;;;;;7.49;100.00;102504.59;4863144;29;20041;-74
2021/03/03 01:41:54;;;;;;;30.70;17.92;;;;;;;7.41;100.00;102498.31;4862369;29;20076;-75
2021/03/03 01:44:39;;;;;;;30.85;17.77;;;;;;;6.98;100.00;102503.31;4862913;29;20352;-75
2021/03/03 01:47:25;;;;;;;30.92;18.30;;;;;;;7.43;100.00;102509.66;4862351;29;20053;-75
2021/03/03 01:50:11;;;;;;;29.38;17.13;;;;;;;7.44;100.00;102497.50;4862866;29;20454;-75
2021/03/03 01:52:58;;;;;;;27.42;17.60;;;;;;;7.28;100.00;102500.59;4862466;29;20045;-74
2021/03/03 01:55:44;;;;;;;27.58;16.77;;;;;;;7.25;100.00;102492.69;4862598;29;20044;-74
2021/03/03 01:58:30;;;;;;;31.00;17.63;;;;;;;6.98;100.00;102494.59;4862475;29;20041;-74
2021/03/03 02:01:16;;;;;;;32.60;17.60;;;;;;;6.64;100.00;102495.50;4874708;29;20344;-74
2021/03/03 02:04:04;;;;;;;26.35;15.95;;;;;;;6.93;100.00;102497.13;4861782;29;20474;-74
2021/03/03 02:07:39;;;;;;;28.40;17.75;;;;;;;7.18;100.00;102509.03;4862961;29;20104;-74
2021/03/03 02:10:36;;;;;;;27.40;17.10;;;;;;;7.11;100.00;102501.91;4858269;29;20037;-74
2021/03/03 02:13:36;;;;;;;29.65;18.10;;;;;;;7.01;100.00;102503.41;4862231;29;20048;-74
2021/03/03 02:16:22;;;;;;;28.20;17.75;;;;;;;7.01;100.00;102499.91;4862316;29;20108;-74
2021/03/03 02:19:14;;;;;;;30.48;18.20;;;;;;;7.41;100.00;102498.31;4862416;29;20025;-74
2021/03/03 02:22:16;;;;;;;30.27;18.45;;;;;;;7.02;100.00;102505.16;4862107;29;20030;-74
2021/03/03 02:25:11;;;;;;;31.45;17.20;;;;;;;6.62;100.00;102499.75;4862300;29;20387;-74
2021/03/03 02:28:00;;;;;;;31.65;18.08;;;;;;;7.05;100.00;102507.84;4874401;29;20033;-74
2021/03/03 02:30:46;;;;;;;33.13;19.10;;;;;;;6.49;100.00;102517.59;4860958;29;20029;-74
2021/03/03 02:33:33;;;;;;;30.35;17.95;;;;;;;7.12;100.00;102512.34;4874123;29;20033;-74
2021/03/03 02:36:22;;;;;;;28.95;18.15;;;;;;;7.22;100.00;102521.28;4862330;29;20033;-74
2021/03/03 02:39:10;;;;;;;30.38;18.48;;;;;;;6.84;100.00;102522.06;4863278;29;20033;-74
2021/03/03 02:41:58;;;;;;;33.20;19.48;;;;;;;7.07;100.00;102521.78;4862389;29;20033;-74
2021/03/03 02:44:45;;;;;;;33.33;18.58;;;;;;;6.96;100.00;102512.84;4861097;29;20029;-74
2021/03/03 02:47:33;;;;;;;26.83;17.40;;;;;;;7.02;100.00;102525.13;4862271;29;20511;-74
2021/03/03 02:50:19;;;;;;;28.38;18.00;;;;;;;7.00;100.00;102521.59;4862439;29;20045;-74
2021/03/03 02:53:05;;;;;;;28.77;18.48;;;;;;;6.91;100.00;102537.00;4862060;29;20034;-74
2021/03/03 02:55:51;;;;;;;31.42;18.25;;;;;;;7.18;100.00;102529.88;4861873;29;20086;-75
2021/03/03 02:58:37;;;;;;;29.55;17.55;;;;;;;7.12;100.00;102528.00;4861732;29;20370;-75
2021/03/03 03:01:25;;;;;;;30.25;17.50;;;;;;;6.99;100.00;102533.75;4861297;29;20036;-75
2021/03/03 03:04:14;;;;;;;28.65;17.27;;;;;;;6.69;100.00;102545.06;4861354;29;20045;-74
2021/03/03 03:07:05;;;;;;;28.90;17.75;;;;;;;6.87;100.00;102550.78;4861772;29;20124;-75
2021/03/03 03:09:52;;;;;;;27.98;17.08;;;;;;;6.94;100.00;102550.09;4861873;29;20455;-74
2021/03/03 03:12:38;;;;;;;29.20;17.08;;;;;;;6.86;100.00;102551.59;4861009;29;20052;-75
2021/03/03 03:15:31;;;;;;;28.63;17.35;;;;;;;6.79;100.00;102566.19;4861903;29;20034;-75
2021/03/03 03:18:21;;;;;;;27.67;17.45;;;;;;;7.15;100.00;102568.91;4861078;29;20459;-74
2021/03/03 03:21:08;;;;;;;28.63;17.45;;;;;;;7.12;100.00;102571.44;4861685;29;20037;-74
2021/03/03 03:23:55;;;;;;;27.52;16.98;;;;;;;7.05;100.00;102573.00;4864696;29;20082;-74
2021/03/03 03:26:41;;;;;;;28.92;16.83;;;;;;;7.13;100.00;102575.81;4866006;29;20033;-75
2021/03/03 03:29:27;;;;;;;30.52;17.67;;;;;;;7.38;100.00;102584.28;4865115;29;20101;-74
2021/03/03 03:32:14;;;;;;;30.08;17.58;;;;;;;7.09;100.00;102584.38;4864587;29;20065;-74
2021/03/03 03:35:00;;;;;;;26.63;16.60;;;;;;;6.88;100.00;102591.63;4864376;29;20029;-74
2021/03/03 03:37:46;;;;;;;29.23;17.40;;;;;;;7.23;100.00;102590.84;4864743;29;20379;-74
2021/03/03 03:40:32;;;;;;;28.02;17.20;;;;;;;7.09;100.00;102587.00;4864842;29;20132;-74
2021/03/03 03:43:19;;;;;;;26.50;17.10;;;;;;;6.89;100.00;102593.38;4864351;29;20474;-74
2021/03/03 03:46:07;;;;;;;28.73;17.23;;;;;;;6.99;100.00;102590.22;4863794;29;20065;-75
2021/03/03 03:48:53;;;;;;;29.60;17.55;;;;;;;7.18;100.00;102587.22;4864943;29;20423;-74
2021/03/03 03:51:42;;;;;;;28.73;16.60;;;;;;;7.29;100.00;102586.69;4865134;29;20026;-74
2021/03/03 03:54:28;;;;;;;28.98;16.92;;;;;;;7.04;100.00;102588.59;4864079;29;20380;-73
2021/03/03 03:57:14;;;;;;;25.73;16.58;;;;;;;6.80;100.00;102600.97;4864731;29;20033;-74
2021/03/03 03:59:59;;;;;;;26.10;16.20;;;;;;;6.93;100.00;102590.91;4864545;29;20120;-75
2021/03/03 04:02:49;;;;;;;33.00;17.77;;;;;;;6.54;100.00;102600.22;4864516;29;20089;-74
2021/03/03 04:05:35;;;;;;;26.85;16.88;;;;;;;6.83;100.00;102599.31;4863808;29;20112;-74
2021/03/03 04:08:20;;;;;;;27.20;16.58;;;;;;;6.64;100.00;102602.28;4864552;29;20029;-74
2021/03/03 04:11:06;;;;;;;26.15;17.42;;;;;;;6.52;100.00;102607.13;4864593;29;20033;-74
2021/03/03 04:13:52;;;;;;;30.05;18.85;;;;;;;6.18;100.00;102608.69;4864282;29;20049;-74
2021/03/03 04:16:38;;;;;;;28.00;17.65;;;;;;;6.59;100.00;102610.78;4864103;29;20033;-74
2021/03/03 04:19:23;;;;;;;31.15;18.05;;;;;;;6.33;100.00;102604.81;4863754;29;20052;-74
2021/03/03 04:22:09;;;;;;;29.52;18.60;;;;;;;6.69;100.00;102610.19;4862716;29;20034;-74
2021/03/03 04:24:55;;;;;;;29.25;18.10;;;;;;;6.58;100.00;102612.50;4875752;29;20025;-74
2021/03/03 04:27:41;;;;;;;27.77;17.35;;;;;;;6.76;100.00;102607.81;4864176;29;20374;-74
2021/03/03 04:30:27;;;;;;;27.95;17.67;;;;;;;6.47;100.00;102608.69;4864076;29;20029;-74
2021/03/03 04:33:14;;;;;;;28.60;17.85;;;;;;;6.80;100.00;102612.28;4862903;29;20432;-74
2021/03/03 04:35:59;;;;;;;32.53;18.42;;;;;;;6.59;100.00;102619.47;4863556;29;20041;-74
2021/03/03 04:38:45;;;;;;;32.05;19.35;;;;;;;6.80;100.00;102620.09;4864071;29;20428;-74
2021/03/03 04:41:31;;;;;;;28.15;17.52;;;;;;;7.10;100.00;102620.91;4863264;29;20033;-75
2021/03/03 04:44:17;;;;;;;30.88;18.48;;;;;;;6.96;100.00;102624.88;4863365;29;20029;-75
2021/03/03 04:47:02;;;;;;;30.13;17.95;;;;;;;6.43;100.00;102624.19;4863689;29;20029;-74
2021/03/03 04:49:48;;;;;;;29.75;18.00;;;;;;;6.87;100.00;102627.22;4863779;29;20451;-75
2021/03/03 04:52:34;;;;;;;34.28;19.23;;;;;;;7.06;100.00;102636.41;4864024;29;20030;-74
2021/03/03 04:55:20;;;;;;;31.05;19.73;;;;;;;6.93;100.00;102630.00;4863354;29;20094;-73
2021/03/03 04:58:06;;;;;;;26.30;17.05;;;;;;;6.83;100.00;102634.91;4875629;29;20026;-73
2021/03/03 05:00:52;;;;;;;27.85;17.52;;;;;;;6.95;100.00;102636.13;4862586;29;20129;-73
2021/03/03 05:03:38;;;;;;;31.63;17.85;;;;;;;7.22;100.00;102638.59;4863210;29;20068;-73
2021/03/03 05:06:23;;;;;;;29.25;18.77;;;;;;;7.20;100.00;102635.09;4862842;29;20109;-74
2021/03/03 05:09:09;;;;;;;29.27;17.65;;;;;;;7.23;100.00;102636.03;4863206;29;20025;-74
2021/03/03 05:11:55;;;;;;;29.77;18.20;;;;;;;7.14;100.00;102641.00;4863074;29;20034;-74
2021/03/03 05:14:41;;;;;;;32.15;17.90;;;;;;;7.22;100.00;102647.31;4862948;29;20040;-73
2021/03/03 05:17:27;;;;;;;29.05;17.88;;;;;;;7.42;100.00;102650.44;4863093;29;20359;-73
2021/03/03 05:20:13;;;;;;;32.10;19.50;;;;;;;7.23;100.00;102650.81;4863485;29;20026;-73
2021/03/03 05:22:58;;;;;;;31.45;18.20;;;;;;;7.38;100.00;102659.91;4862602;29;20507;-73
2021/03/03 05:25:44;;;;;;;31.35;18.75;;;;;;;7.34;100.00;102658.06;4862587;29;20364;-73
2021/03/03 05:28:31;;;;;;;33.35;18.42;;;;;;;7.25;100.00;102667.38;4874596;29;20496;-73
2021/03/03 05:31:17;;;;;;;33.78;18.83;;;;;;;7.25;100.00;102656.94;4863009;29;20029;-73
2021/03/03 05:34:03;;;;;;;36.08;19.20;;;;;;;7.60;100.00;102653.53;4862831;29;20033;-73
2021/03/03 05:36:48;;;;;;;31.50;17.98;;;;;;;7.10;100.00;102662.63;4863092;29;20452;-73
2021/03/03 05:39:34;;;;;;;31.42;18.90;;;;;;;7.35;100.00;102658.97;4863388;29;20038;-74
2021/03/03 05:42:20;;;;;;;27.77;17.90;;;;;;;7.37;100.00;102662.47;4874717;29;20048;-75
2021/03/03 05:45:07;;;;;;;28.05;17.33;;;;;;;7.52;100.00;102668.09;4862414;29;20034;-73
2021/03/03 05:47:54;;;;;;;33.05;16.08;;;;;;;7.56;100.00;102670.81;4862718;29;20048;-73
2021/03/03 05:50:44;;;;;;;27.52;16.73;;;;;;;7.25;100.00;102673.47;4863429;29;20113;-73
2021/03/03 05:53:31;;;;;;;29.83;17.13;;;;;;;7.53;100.00;102669.84;4862368;29;20034;-74
2021/03/03 05:56:20;;;;;;;30.83;18.00;;;;;;;6.92;100.00;102682.97;4862602;29;20072;-73
2021/03/03 05:59:10;;;;;;;29.95;17.33;;;;;;;7.35;100.00;102690.25;4861387;29;20109;-74
2021/03/03 06:01:57;;;;;;;29.52;17.27;;;;;;;7.58;100.00;102689.09;4861781;29;20467;-74
2021/03/03 06:04:43;;;;;;;26.83;16.92;;;;;;;7.43;100.00;102697.41;4862158;29;20041;-74
2021/03/03 06:07:29;;;;;;;29.73;16.67;;;;;;;7.70;100.00;102690.31;4862408;29;20072;-73
2021/03/03 06:10:15;;;;;;;30.35;16.83;;;;;;;7.79;100.00;102689.66;4861605;29;20041;-74
2021/03/03 06:13:01;;;;;;;28.42;16.35;;;;;;;7.33;100.00;102692.81;4862353;29;20029;-73
2021/03/03 06:15:47;;;;;;;25.60;15.52;;;;;;;7.65;100.00;102685.81;4861568;29;20034;-73
2021/03/03 06:18:33;;;;;;;27.08;16.63;;;;;;;7.85;100.00;102690.72;4862069;29;20037;-73
2021/03/03 06:21:30;;;;;;;32.72;17.48;;;;;;;7.74;100.00;102694.78;4861593;29;20026;-74
2021/03/03 06:24:15;;;;;;;32.75;17.98;;;;;;;7.86;100.00;102700.31;4861894;29;20061;-74
2021/03/03 06:27:02;;;;;;;30.33;17.90;;;;;;;7.75;100.00;102693.03;4862536;29;20446;-72
2021/03/03 06:30:05;;;;;;;29.77;17.83;;;;;;;7.80;100.00;102692.31;4860930;29;20025;-74
2021/03/03 06:33:02;;;;;;;29.95;18.05;;;;;;;7.87;100.00;102688.13;4862118;29;20356;-72
2021/03/03 06:35:48;;;;;;;30.60;18.05;;;;;;;8.06;100.00;102691.22;4862201;29;20029;-74
2021/03/03 06:38:34;;;;;;;31.05;18.80;;;;;;;7.97;100.00;102701.47;4862145;29;20478;-74
2021/03/03 06:41:20;;;;;;;32.15;18.17;;;;;;;8.13;100.00;102697.47;4862177;29;20043;-74
2021/03/03 06:44:06;;;;;;;30.33;18.10;;;;;;;8.18;100.00;102695.84;4861904;29;20352;-74
2021/03/03 06:47:10;;;;;;;37.40;22.33;;;;;;;8.15;100.00;102695.78;4860786;29;20045;-74
2021/03/03 06:50:12;;;;;;;30.33;17.35;;;;;;;8.19;100.00;102701.13;4860501;29;20033;-74
2021/03/03 06:52:58;;;;;;;32.33;17.27;;;;;;;7.83;100.00;102697.59;4860975;29;20038;-74
2021/03/03 06:55:48;;;;;;;30.15;16.50;;;;;;;8.06;100.00;102700.78;4863607;29;20375;-74
2021/03/03 06:58:34;;;;;;;26.95;16.15;;;;;;;8.25;100.00;102708.25;4865638;29;20105;-74
2021/03/03 07:01:33;;;;;;;27.60;16.45;;;;;;;8.68;100.00;102706.63;4864531;29;20436;-75
2021/03/03 07:04:28;;;;;;;28.38;16.73;;;;;;;8.13;100.00;102698.38;4864697;29;20053;-74
2021/03/03 07:07:19;;;;;;;27.52;16.58;;;;;;;8.42;100.00;102710.41;4864971;29;20115;-74
2021/03/03 07:10:06;;;;;;;31.20;17.73;;;;;;;8.28;100.00;102714.41;4864295;29;20485;-73
2021/03/03 07:12:52;;;;;;;28.30;17.08;;;;;;;8.48;100.00;102714.91;4865466;29;20500;-74
2021/03/03 07:15:37;;;;;;;30.05;16.70;;;;;;;8.92;100.00;102711.53;4865189;29;20021;-73
2021/03/03 07:18:37;;;;;;;28.60;17.50;;;;;;;8.69;100.00;102718.84;4865243;29;20057;-74
2021/03/03 07:21:36;;;;;;;26.48;16.70;;;;;;;9.12;100.00;102721.53;4864524;29;20029;-74
2021/03/03 07:24:26;;;;;;;32.00;17.90;;;;;;;9.49;100.00;102718.75;4864991;29;20374;-74
2021/03/03 07:27:18;;;;;;;32.88;17.17;;;;;;;8.86;100.00;102717.50;4864942;29;20092;-73
2021/03/03 07:30:11;;;;;;;31.88;16.40;;;;;;;9.49;100.00;102718.75;4865912;29;20376;-74
2021/03/03 07:32:58;;;;;;;30.58;15.55;;;;;;;9.05;100.00;102721.38;4866334;29;20045;-74
2021/03/03 07:35:43;;;;;;;28.65;16.92;;;;;;;9.12;100.00;102724.13;4865903;29;20409;-74
2021/03/03 07:38:36;;;;;;;27.05;16.35;;;;;;;9.92;100.00;102728.25;4864922;29;20100;-74
2021/03/03 07:41:25;;;;;;;25.23;15.60;;;;;;;9.27;100.00;102739.25;4865176;29;20026;-73
2021/03/03 07:44:18;;;;;;;25.30;15.77;;;;;;;9.65;100.00;102733.03;4863662;29;20042;-74
2021/03/03 07:47:04;;;;;;;25.88;15.63;;;;;;;9.44;100.00;102727.38;4864172;29;20459;-74
2021/03/03 07:49:52;;;;;;;28.23;16.35;;;;;;;9.99;100.00;102730.13;4864796;29;20052;-74
2021/03/03 07:52:41;;;;;;;24.52;16.02;;;;;;;9.99;100.00;102736.25;4863976;29;20435;-73
2021/03/03 07:55:29;;;;;;;28.08;15.25;;;;;;;10.18;100.00;102730.47;4864709;29;20040;-75
2021/03/03 07:58:15;;;;;;;27.35;16.48;;;;;;;10.52;100.00;102725.78;4863453;29;20120;-73
2021/03/03 08:01:04;;;;;;;25.75;16.05;;;;;;;10.96;100.00;102735.13;4863687;29;20120;-75
2021/03/03 08:03:50;;;;;;;26.92;16.08;;;;;;;10.70;100.00;102733.91;4864245;29;20046;-75
2021/03/03 08:06:37;;;;;;;25.70;15.48;;;;;;;10.66;100.00;102732.09;4863744;29;20103;-73
2021/03/03 08:09:23;;;;;;;25.80;15.23;;;;;;;10.58;100.00;102736.34;4876864;29;20065;-73
2021/03/03 08:12:09;;;;;;;23.20;15.13;;;;;;;10.43;100.00;102725.63;4863989;29;20040;-74
2021/03/03 08:14:55;;;;;;;24.50;15.55;;;;;;;11.43;100.00;102733.97;4864673;29;20480;-74
2021/03/03 08:17:41;;;;;;;28.15;16.13;;;;;;;11.53;100.00;102730.59;4864928;29;20129;-74
2021/03/03 08:20:30;;;;;;;28.63;15.23;;;;;;;11.51;100.00;102725.31;4863640;29;20033;-75
2021/03/03 08:23:34;;;;;;;24.73;15.40;;;;;;;12.48;96.28;102727.94;4863374;29;20025;-74
2021/03/03 08:26:19;;;;;;;23.98;14.38;;;;;;;12.18;94.18;102730.34;4863750;29;20455;-74
2021/03/03 08:29:12;;;;;;;25.67;15.25;;;;;;;12.36;94.68;102719.97;4863864;29;20030;-73
2021/03/03 08:32:21;;;;;;;22.35;14.63;;;;;;;12.86;93.08;102722.91;4864227;29;20056;-73
2021/03/03 08:35:11;;;;;;;22.77;14.85;;;;;;;12.18;93.84;102719.81;4863659;29;20090;-74
2021/03/03 08:38:15;;;;;;;23.33;14.80;;;;;;;12.38;93.69;102720.84;4862859;29;20040;-73
2021/03/03 08:41:16;;;;;;;26.95;16.05;;;;;;;13.35;89.80;102717.88;4863753;29;20122;-74
2021/03/03 08:44:16;;;;;;;29.30;16.88;;;;;;;13.09;89.32;102716.03;4863901;29;20066;-74
2021/03/03 08:47:01;;;;;;;24.10;15.52;;;;;;;12.85;91.37;102716.75;4863555;29;20137;-73
2021/03/03 08:49:47;;;;;;;25.35;15.80;;;;;;;13.00;87.70;102724.78;4863706;29;20101;-73
2021/03/03 08:52:33;;;;;;;24.60;16.40;;;;;;;14.04;83.77;102720.63;4862547;29;20025;-73
2021/03/03 08:55:32;;;;;;;21.77;15.18;;;;;;;14.36;79.14;102721.50;4863642;29;20089;-74
2021/03/03 08:58:48;;;;;;;25.67;15.88;;;;;;;13.55;83.01;102716.16;4863585;29;20094;-74
2021/03/03 09:01:55;;;;;;;23.10;15.05;;;;;;;14.31;79.88;102712.72;4863349;29;20025;-73
2021/03/03 09:04:52;;;;;;;23.48;14.43;;;;;;;13.59;82.61;102720.56;4862635;29;20535;-74
2021/03/03 09:07:38;;;;;;;20.83;14.60;;;;;;;14.28;78.56;102719.78;4863338;29;20404;-74
2021/03/03 09:10:24;;;;;;;21.67;14.68;;;;;;;14.88;74.56;102719.66;4862382;29;20033;-73
2021/03/03 09:13:23;;;;;;;24.13;14.02;;;;;;;14.23;74.28;102711.00;4862842;29;20037;-74
2021/03/03 09:16:13;;;;;;;26.77;14.30;;;;;;;14.03;72.51;102721.50;4863219;29;20105;-74
2021/03/03 09:19:07;;;;;;;26.88;14.63;;;;;;;15.05;69.54;102717.81;4861513;29;20033;-75
2021/03/03 09:21:53;;;;;;;26.55;14.55;;;;;;;15.06;66.63;102714.28;4862501;29;20029;-74
2021/03/03 09:24:39;;;;;;;26.73;13.98;;;;;;;14.76;65.61;102712.63;4862675;29;20026;-73
2021/03/03 09:27:25;;;;;;;27.35;14.43;;;;;;;15.14;66.14;102719.56;4862465;29;20058;-74
2021/03/03 09:30:11;;;;;;;26.33;14.30;;;;;;;14.60;65.91;102710.91;4862264;29;20022;-74
2021/03/03 09:33:05;;;;;;;24.30;14.65;;;;;;;14.77;67.08;102710.88;4861942;29;20446;-73
2021/03/03 09:35:51;;;;;;;27.67;15.35;;;;;;;14.40;69.38;102725.03;4862089;29;20069;-74
2021/03/03 09:38:37;;;;;;;22.95;13.45;;;;;;;14.44;68.01;102713.59;4863374;29;20029;-75
2021/03/03 09:41:23;;;;;;;26.85;14.48;;;;;;;13.94;70.66;102717.97;4863125;29;20120;-74
2021/03/03 09:44:09;;;;;;;23.30;15.02;;;;;;;14.54;74.08;102704.78;4874830;29;20032;-75
2021/03/03 09:46:56;;;;;;;27.27;14.85;;;;;;;15.01;68.79;102717.81;4861133;29;20033;-73
2021/03/03 09:49:44;;;;;;;21.77;13.45;;;;;;;14.24;69.76;102712.75;4861929;29;20025;-74
2021/03/03 09:52:39;;;;;;;22.73;13.57;;;;;;;13.95;72.61;102709.22;4861596;29;20061;-73
2021/03/03 09:55:28;;;;;;;24.33;13.98;;;;;;;14.51;68.78;102713.56;4861977;29;20029;-74
2021/03/03 09:58:14;;;;;;;20.80;13.55;;;;;;;15.20;64.39;102698.38;4862520;29;20036;-74
2021/03/03 10:00:59;;;;;;;21.17;13.60;;;;;;;14.78;71.04;102707.34;4861388;29;20033;-74
2021/03/03 10:03:45;;;;;;;24.27;12.52;;;;;;;14.82;67.73;102693.25;4861898;29;20121;-74
2021/03/03 10:06:31;;;;;;;21.20;13.52;;;;;;;15.13;66.47;102694.91;4861940;29;20033;-75
2021/03/03 10:09:18;;;;;;;25.85;13.13;;;;;;;14.63;66.86;102702.13;4862279;29;20459;-74
2021/03/03 10:12:08;;;;;;;23.02;12.55;;;;;;;15.17;69.33;102691.38;4861720;29;20037;-74
2021/03/03 10:15:10;;;;;;;22.85;13.45;;;;;;;14.98;66.70;102694.09;4861599;29;20109;-74
2021/03/03 10:17:57;;;;;;;19.73;13.02;;;;;;;14.78;69.73;102684.50;4861806;29;20105;-74
2021/03/03 10:20:44;;;;;;;27.40;13.20;;;;;;;14.93;72.43;102685.28;4862422;29;20455;-74
2021/03/03 10:23:33;;;;;;;23.83;14.00;;;;;;;14.67;74.74;102681.00;4861778;29;20048;-74
2021/03/03 10:26:23;;;;;;;25.55;13.65;;;;;;;15.08;68.16;102674.69;4862151;29;20414;-74
2021/03/03 10:29:09;;;;;;;22.02;13.80;;;;;;;15.48;69.21;102676.25;4861026;29;20037;-73
2021/03/03 10:32:08;;;;;;;21.73;12.52;;;;;;;15.06;71.26;102677.31;4861687;29;20030;-74
2021/03/03 10:35:00;;;;;;;20.77;12.98;;;;;;;14.69;71.72;102662.53;4861393;29;20030;-73
2021/03/03 10:37:46;;;;;;;18.15;12.70;;;;;;;14.77;71.26;102664.28;4862457;29;20408;-73
2021/03/03 10:40:37;;;;;;;22.10;12.77;;;;;;;15.29;70.70;102651.69;4862785;29;20041;-75
2021/03/03 10:43:25;;;;;;;21.85;13.38;;;;;;;15.62;69.79;102655.88;4862874;29;20104;-75
2021/03/03 10:46:13;;;;;;;20.25;12.85;;;;;;;15.06;69.68;102643.00;4862335;29;20037;-76
2021/03/03 10:49:18;;;;;;;20.48;13.07;;;;;;;15.94;67.23;102640.63;4861112;29;20047;-75
2021/03/03 10:52:24;;;;;;;23.20;13.82;;;;;;;15.73;68.75;102631.13;4863302;29;20029;-75
2021/03/03 10:55:21;;;;;;;23.27;13.55;;;;;;;15.74;69.01;102629.34;4875197;29;20025;-75
2021/03/03 10:58:08;;;;;;;21.40;13.50;;;;;;;15.34;69.27;102631.38;4861959;29;20455;-74
2021/03/03 11:00:58;;;;;;;23.17;13.50;;;;;;;15.80;68.30;102621.38;4873713;29;20048;-74
2021/03/03 11:04:02;;;;;;;25.90;12.90;;;;;;;15.15;71.44;102618.31;4861392;29;20141;-74
2021/03/03 11:06:48;;;;;;;19.00;12.75;;;;;;;16.03;67.69;102607.06;4861815;29;20040;-76
2021/03/03 11:09:34;;;;;;;23.85;13.70;;;;;;;16.03;65.98;102611.50;4860671;29;20025;-75
2021/03/03 11:12:27;;;;;;;22.92;14.20;;;;;;;16.16;65.50;102603.38;4861055;29;20048;-75
2021/03/03 11:15:14;;;;;;;21.90;13.40;;;;;;;16.13;65.80;102594.63;4861350;29;20029;-74
2021/03/03 11:18:00;;;;;;;21.55;12.90;;;;;;;16.93;61.74;102591.91;4861216;29;20111;-74
2021/03/03 11:20:46;;;;;;;22.63;14.48;;;;;;;16.72;62.38;102587.75;4861557;29;20447;-74
2021/03/03 11:23:32;;;;;;;21.63;13.32;;;;;;;16.31;63.63;102583.84;4860944;29;20037;-75
2021/03/03 11:26:17;;;;;;;20.65;13.45;;;;;;;16.64;62.67;102568.44;4860980;29;20194;-74
2021/03/03 11:29:04;;;;;;;19.17;13.18;;;;;;;16.17;66.44;102575.19;4861270;29;20116;-75
2021/03/03 11:31:50;;;;;;;20.25;12.85;;;;;;;16.05;65.70;102568.28;4861270;29;20033;-74
2021/03/03 11:34:35;;;;;;;20.02;13.25;;;;;;;16.31;61.66;102578.56;4861150;29;20510;-74
2021/03/03 11:37:21;;;;;;;27.15;14.50;;;;;;;16.71;60.64;102572.78;4860243;29;20399;-76
2021/03/03 11:40:07;;;;;;;21.25;13.85;;;;;;;16.64;61.89;102565.81;4861435;29;20125;-75
2021/03/03 11:42:53;;;;;;;20.25;13.23;;;;;;;16.69;60.88;102564.00;4875153;29;20033;-75
2021/03/03 11:45:39;;;;;;;24.52;16.67;;;;;;;17.05;60.63;102562.59;4863778;29;20109;-76
2021/03/03 11:48:24;;;;;;;24.00;14.10;;;;;;;16.98;61.54;102559.16;4864815;29;20101;-75
2021/03/03 11:51:11;;;;;;;21.40;14.75;;;;;;;16.85;60.94;102554.94;4864953;29;20465;-74
2021/03/03 11:53:57;;;;;;;20.95;13.55;;;;;;;16.78;63.13;102550.63;4864425;29;20374;-75
2021/03/03 11:56:43;;;;;;;21.60;13.98;;;;;;;16.67;62.18;102556.94;4864513;29;20101;-75
2021/03/03 11:59:29;;;;;;;23.17;14.70;;;;;;;16.52;63.23;102551.88;4863963;29;20049;-75
2021/03/03 12:02:15;;;;;;;22.52;13.98;;;;;;;16.88;61.14;102549.59;4863135;29;20469;-74
2021/03/03 12:05:01;;;;;;;22.02;14.15;;;;;;;17.28;61.40;102553.38;4864104;29;20049;-75
2021/03/03 12:07:47;;;;;;;20.40;13.65;;;;;;;16.95;60.20;102547.72;4864315;29;20037;-75
2021/03/03 12:10:37;;;;;;;21.42;13.70;;;;;;;16.72;60.45;102541.91;4863877;29;20033;-75
2021/03/03 12:13:23;;;;;;;20.10;13.48;;;;;;;17.45;58.70;102540.75;4864286;29;20037;-76
2021/03/03 12:16:09;;;;;;;22.60;14.70;;;;;;;17.33;59.32;102529.47;4864098;29;20026;-75
2021/03/03 12:18:54;;;;;;;26.17;14.00;;;;;;;17.85;57.63;102531.22;4864239;29;20033;-76
2021/03/03 12:21:40;;;;;;;21.13;12.85;;;;;;;17.78;56.74;102529.59;4863996;29;20025;-75
2021/03/03 12:24:26;;;;;;;21.63;13.98;;;;;;;16.73;58.06;102523.34;4862707;29;20037;-75
2021/03/03 12:27:12;;;;;;;23.63;13.40;;;;;;;16.95;57.97;102527.44;4863788;29;20408;-75
2021/03/03 12:29:58;;;;;;;22.02;13.45;;;;;;;16.86;58.14;102526.69;4863201;29;20419;-74
2021/03/03 12:32:44;;;;;;;23.33;13.77;;;;;;;17.25;58.01;102531.38;4863537;29;20029;-74
2021/03/03 12:35:29;;;;;;;24.02;14.73;;;;;;;16.92;56.36;102539.84;4863824;29;20397;-73
2021/03/03 12:38:15;;;;;;;20.85;13.38;;;;;;;17.39;56.90;102526.72;4863908;29;20025;-74
2021/03/03 12:41:01;;;;;;;19.45;12.73;;;;;;;18.02;55.52;102515.88;4862805;29;20118;-75
2021/03/03 12:43:47;;;;;;;29.10;13.85;;;;;;;17.98;55.52;102515.94;4863635;29;20434;-75
2021/03/03 12:46:33;;;;;;;22.17;13.98;;;;;;;17.55;56.40;102518.53;4862596;29;20407;-74